Time;durP1;ratioP1;P1;durP2;ratioP2;P2;SDS_P1;SDS_P2;PMS_P1;PMS_P2;Temp;Humidity;BMP_temperature;BMP_pressure;BME280_temperature;BME280_humidity;BME280_pressure;Samples;Min_cycle;Max_cycle;Signal;HPM_P1;HPM_P2
2022/08/02 00:00:14;;;;;;;3.53;1.60;;;18.20;88.90;;;;;;4973164;28;20031;-85
2022/08/02 00:02:44;;;;;;;5.50;2.08;;;18.10;89.20;;;;;;4972590;28;20028;-85
2022/08/02 00:05:11;;;;;;;4.20;1.60;;;18.10;89.50;;;;;;4973125;28;20047;-85
2022/08/02 00:07:37;;;;;;;5.65;1.70;;;18.10;89.80;;;;;;4989026;28;20118;-85
2022/08/02 00:10:04;;;;;;;6.60;1.80;;;18.10;89.90;;;;;;4973064;28;20053;-83
2022/08/02 00:12:30;;;;;;;4.20;1.85;;;18.10;90.00;;;;;;4991130;28;20031;-84
2022/08/02 00:14:56;;;;;;;5.10;1.63;;;18.10;89.90;;;;;;4974108;28;20504;-83
2022/08/02 00:17:22;;;;;;;3.30;1.58;;;18.10;90.00;;;;;;4989925;28;20384;-83
2022/08/02 00:19:48;;;;;;;5.53;1.85;;;18.00;89.90;;;;;;4973165;28;20058;-83
2022/08/02 00:22:13;;;;;;;3.38;1.45;;;18.00;89.80;;;;;;4973328;28;20099;-84
2022/08/02 00:24:39;;;;;;;6.00;1.65;;;18.00;90.00;;;;;;4972917;28;20113;-84
2022/08/02 00:27:07;;;;;;;8.02;1.80;;;18.00;90.00;;;;;;4973077;28;20033;-83
2022/08/02 00:29:34;;;;;;;3.28;1.70;;;18.00;90.20;;;;;;4989211;28;20420;-83
2022/08/02 00:31:59;;;;;;;5.32;1.83;;;17.90;90.40;;;;;;4989090;28;20472;-83
2022/08/02 00:34:25;;;;;;;4.95;1.70;;;17.90;90.30;;;;;;4972731;28;20034;-83
2022/08/02 00:36:51;;;;;;;4.13;1.92;;;17.90;90.30;;;;;;4974007;28;20031;-83
2022/08/02 00:39:16;;;;;;;4.47;1.58;;;17.90;90.30;;;;;;4976137;28;20554;-83
2022/08/02 00:41:47;;;;;;;4.53;2.03;;;17.80;90.40;;;;;;4974377;28;20384;-84
2022/08/02 00:44:14;;;;;;;4.25;1.80;;;17.80;90.60;;;;;;4976108;28;20046;-83
2022/08/02 00:46:40;;;;;;;4.97;1.70;;;17.80;90.70;;;;;;4976141;28;20034;-83
2022/08/02 00:49:06;;;;;;;3.88;1.60;;;17.80;90.90;;;;;;4976056;28;20368;-83
2022/08/02 00:51:32;;;;;;;4.68;1.85;;;17.80;91.00;;;;;;4992193;28;20029;-83
2022/08/02 00:57:59;;;;;;;4.03;1.60;;;17.80;91.10;;;;;;4962235;28;20098;-83
2022/08/02 01:00:25;;;;;;;5.05;1.90;;;17.70;91.10;;;;;;4940506;28;20038;-84
2022/08/02 01:02:51;;;;;;;4.18;1.50;;;17.70;91.40;;;;;;4940429;29;20110;-84
2022/08/02 01:05:17;;;;;;;3.72;1.35;;;17.70;92.10;;;;;;4956268;28;20110;-83
2022/08/02 01:07:43;;;;;;;7.47;1.85;;;17.60;91.80;;;;;;4940404;29;20493;-84
2022/08/02 01:10:09;;;;;;;5.40;1.70;;;17.60;91.80;;;;;;4940236;29;20050;-83
2022/08/02 01:12:36;;;;;;;4.75;1.88;;;17.60;91.80;;;;;;4940361;29;20036;-84
2022/08/02 01:15:05;;;;;;;4.60;1.58;;;17.60;91.70;;;;;;4956274;28;20452;-84
2022/08/02 01:17:49;;;;;;;6.78;1.95;;;17.60;91.70;;;;;;4976503;28;20035;-84
2022/08/02 01:20:39;;;;;;;7.07;2.17;;;17.60;91.60;;;;;;4975201;28;20038;-83
2022/08/02 01:23:28;;;;;;;4.30;1.70;;;17.50;91.40;;;;;;4956119;28;20024;-84
2022/08/02 01:26:36;;;;;;;5.43;2.15;;;17.50;91.50;;;;;;4955424;28;20031;-84
2022/08/02 01:29:12;;;;;;;5.97;1.90;;;17.50;91.50;;;;;;4959744;28;20039;-84
2022/08/02 01:35:10;;;;;;;3.83;1.73;;;17.40;91.70;;;;;;4946586;28;20377;-83
2022/08/02 01:38:03;;;;;;;3.75;1.73;;;17.40;91.80;;;;;;4939791;28;20023;-83
2022/08/02 01:40:33;;;;;;;7.20;2.20;;;17.30;91.90;;;;;;4939810;29;20107;-83
2022/08/02 01:42:59;;;;;;;4.05;1.83;;;17.30;92.00;;;;;;4946631;29;20067;-83
2022/08/02 01:45:29;;;;;;;4.55;1.70;;;17.30;92.20;;;;;;4939236;29;20015;-84
2022/08/02 01:47:55;;;;;;;4.28;1.98;;;17.30;92.40;;;;;;4949767;28;20389;-83
2022/08/02 01:50:42;;;;;;;5.28;2.08;;;17.30;92.50;;;;;;4949736;28;20020;-83
2022/08/02 01:53:11;;;;;;;5.38;2.05;;;17.20;92.50;;;;;;4940620;29;20036;-83
2022/08/02 01:55:42;;;;;;;5.78;2.75;;;17.20;92.40;;;;;;4957309;28;20057;-83
2022/08/02 01:58:13;;;;;;;5.93;2.03;;;17.20;92.50;;;;;;4983982;28;20044;-83
2022/08/02 02:00:40;;;;;;;4.35;1.90;;;17.10;92.50;;;;;;4976796;28;20031;-84
2022/08/02 02:03:13;;;;;;;7.07;1.98;;;17.10;92.60;;;;;;4991387;28;20085;-83
2022/08/02 02:05:40;;;;;;;7.50;2.15;;;17.10;92.80;;;;;;4990721;28;20471;-83
2022/08/02 02:08:08;;;;;;;6.22;2.60;;;17.00;92.90;;;;;;4974445;28;20037;-83
2022/08/02 02:10:37;;;;;;;6.18;2.50;;;17.00;93.10;;;;;;4974752;28;20027;-83
2022/08/02 02:13:13;;;;;;;4.70;2.25;;;17.00;93.30;;;;;;4990731;28;20018;-84
2022/08/02 02:15:49;;;;;;;6.35;2.08;;;17.00;93.40;;;;;;4990671;28;20057;-83
2022/08/02 02:18:23;;;;;;;5.45;2.65;;;17.00;93.60;;;;;;4974423;28;20034;-83
2022/08/02 02:20:49;;;;;;;7.68;2.60;;;17.00;93.60;;;;;;4990516;28;20030;-84
2022/08/02 02:23:16;;;;;;;9.10;2.65;;;17.00;93.60;;;;;;4990431;28;20421;-84
2022/08/02 02:25:42;;;;;;;6.45;2.53;;;17.00;93.60;;;;;;4974380;28;20122;-83
2022/08/02 02:28:28;;;;;;;8.38;2.60;;;17.00;93.60;;;;;;4990208;28;20361;-83
2022/08/02 02:31:00;;;;;;;6.75;2.40;;;16.90;93.60;;;;;;4974146;28;20465;-83
2022/08/02 02:33:59;;;;;;;5.68;2.30;;;16.90;93.60;;;;;;4973888;28;20114;-83
2022/08/02 02:36:27;;;;;;;5.95;2.50;;;16.90;93.70;;;;;;4974795;28;20081;-83
2022/08/02 02:38:58;;;;;;;7.50;2.60;;;16.90;93.70;;;;;;4973872;28;20045;-84
2022/08/02 02:41:25;;;;;;;5.70;2.30;;;16.90;93.80;;;;;;4974085;28;20469;-83
2022/08/02 02:43:54;;;;;;;8.30;2.45;;;16.90;93.90;;;;;;4973851;28;20117;-83
2022/08/02 02:46:21;;;;;;;7.13;2.70;;;16.90;93.90;;;;;;4975147;28;20480;-83
2022/08/02 02:48:50;;;;;;;7.78;2.40;;;16.80;94.10;;;;;;4990104;28;20081;-83
2022/08/02 02:51:17;;;;;;;8.93;2.88;;;16.80;94.20;;;;;;4975039;28;20391;-83
2022/08/02 02:53:43;;;;;;;6.30;2.58;;;16.80;94.30;;;;;;4973827;28;20047;-83
2022/08/02 02:56:11;;;;;;;6.53;2.97;;;16.80;94.40;;;;;;4989755;28;20025;-83
2022/08/02 02:58:38;;;;;;;5.47;2.65;;;16.80;94.50;;;;;;4973665;28;20039;-83
2022/08/02 03:03:50;;;;;;;3.58;2.35;;;16.80;94.60;;;;;;4987865;28;20086;-83
2022/08/02 03:06:15;;;;;;;7.05;3.00;;;16.80;94.50;;;;;;4989833;28;20026;-84
2022/08/02 03:08:42;;;;;;;6.00;3.15;;;16.80;94.50;;;;;;4973649;28;20027;-83
2022/08/02 03:11:09;;;;;;;7.90;2.83;;;16.80;94.50;;;;;;4973432;28;20026;-83
2022/08/02 03:13:36;;;;;;;7.50;3.03;;;16.80;94.50;;;;;;4973629;28;20054;-83
2022/08/02 03:16:02;;;;;;;7.53;3.17;;;16.80;94.50;;;;;;4989735;28;20051;-83
2022/08/02 03:18:37;;;;;;;9.05;3.03;;;16.80;94.60;;;;;;4989735;28;20066;-83
2022/08/02 03:21:59;;;;;;;9.73;3.00;;;16.70;94.60;;;;;;4972360;28;20026;-82
2022/08/02 03:24:25;;;;;;;6.63;2.88;;;16.70;94.70;;;;;;4972488;28;20058;-84
2022/08/02 03:26:50;;;;;;;8.15;3.10;;;16.70;94.80;;;;;;4973323;28;20500;-83
2022/08/02 03:32:41;;;;;;;6.35;2.80;;;16.70;95.00;;;;;;4973414;28;20069;-83
2022/08/02 03:35:10;;;;;;;6.22;2.92;;;16.70;95.10;;;;;;4989306;28;20011;-83
2022/08/02 03:37:37;;;;;;;7.25;3.10;;;16.70;95.20;;;;;;4989549;28;20031;-84
2022/08/02 03:40:06;;;;;;;8.15;2.97;;;16.60;95.20;;;;;;4973334;28;20135;-84
2022/08/02 03:42:32;;;;;;;6.68;3.08;;;16.60;95.40;;;;;;4989433;28;20089;-83
2022/08/02 03:44:59;;;;;;;6.63;3.00;;;16.60;95.50;;;;;;4973232;28;20430;-83
2022/08/02 03:47:27;;;;;;;6.57;3.20;;;16.60;95.60;;;;;;4986051;28;20114;-83
2022/08/02 03:49:53;;;;;;;7.25;3.40;;;16.60;95.70;;;;;;4971070;28;20464;-84
2022/08/02 03:52:20;;;;;;;6.53;3.70;;;16.60;95.90;;;;;;4969835;28;20031;-83
2022/08/02 03:54:46;;;;;;;6.03;3.53;;;16.70;96.00;;;;;;4969293;28;20019;-83
2022/08/02 03:57:12;;;;;;;8.68;3.80;;;16.70;96.10;;;;;;4972992;28;20083;-83
2022/08/02 03:59:43;;;;;;;11.68;4.10;;;16.70;96.20;;;;;;4973141;28;20033;-83
2022/08/02 04:02:10;;;;;;;6.63;3.10;;;16.60;96.20;;;;;;4970012;28;20027;-83
2022/08/02 04:04:36;;;;;;;8.27;3.67;;;16.70;96.40;;;;;;4982284;28;20041;-83
2022/08/02 04:07:02;;;;;;;5.20;3.05;;;16.70;96.40;;;;;;4972969;28;20037;-83
2022/08/02 04:09:27;;;;;;;7.32;4.00;;;16.70;96.50;;;;;;4992678;28;20015;-83
2022/08/02 04:11:53;;;;;;;8.18;3.40;;;16.70;96.50;;;;;;4976771;28;20027;-83
2022/08/02 04:14:19;;;;;;;5.72;2.78;;;16.60;96.50;;;;;;4993069;28;20019;-83
2022/08/02 04:16:57;;;;;;;5.55;3.05;;;16.70;96.90;;;;;;4992884;28;20041;-83
2022/08/02 04:19:29;;;;;;;6.10;2.53;;;16.70;97.10;;;;;;4976762;28;20038;-83
2022/08/02 04:21:58;;;;;;;8.50;3.75;;;16.70;97.30;;;;;;4992829;28;20038;-83
2022/08/02 04:24:31;;;;;;;7.47;3.13;;;16.70;97.20;;;;;;4978970;28;20117;-83
2022/08/02 04:26:58;;;;;;;7.07;3.53;;;16.70;97.00;;;;;;4977591;28;20085;-84
2022/08/02 04:29:25;;;;;;;8.15;3.60;;;16.70;97.00;;;;;;4992679;28;20022;-85
2022/08/02 04:31:52;;;;;;;10.00;3.60;;;16.70;97.00;;;;;;4992567;28;20022;-85
2022/08/02 04:34:22;;;;;;;7.72;3.08;;;16.70;97.00;;;;;;4976334;28;20033;-85
2022/08/02 04:36:48;;;;;;;6.40;3.53;;;16.70;97.00;;;;;;4976936;28;20480;-85
2022/08/02 04:39:14;;;;;;;7.43;3.78;;;16.70;97.00;;;;;;4976411;28;20038;-85
2022/08/02 04:41:42;;;;;;;7.10;3.20;;;16.70;97.10;;;;;;4976607;28;20037;-85
2022/08/02 04:44:07;;;;;;;6.07;3.25;;;16.70;97.20;;;;;;4976076;28;20039;-85
2022/08/02 04:46:35;;;;;;;8.05;3.83;;;16.70;97.20;;;;;;4992315;28;20085;-85
2022/08/02 04:49:01;;;;;;;7.72;3.50;;;16.70;97.30;;;;;;4977419;28;20027;-85
2022/08/02 04:51:27;;;;;;;8.50;3.50;;;16.70;97.40;;;;;;4976414;28;20354;-86
2022/08/02 04:53:55;;;;;;;6.22;3.00;;;16.70;97.50;;;;;;4992226;28;20384;-86
2022/08/02 04:56:20;;;;;;;7.80;3.33;;;16.70;97.60;;;;;;4975081;28;20023;-86
2022/08/02 04:58:46;;;;;;;7.18;3.58;;;16.70;97.70;;;;;;4969937;28;20374;-86
2022/08/02 05:01:12;;;;;;;8.82;3.47;;;16.70;97.70;;;;;;4987367;28;20488;-85
2022/08/02 05:03:37;;;;;;;5.60;3.45;;;16.70;97.80;;;;;;4975994;28;20032;-89
2022/08/02 05:06:09;;;;;;;7.82;3.95;;;16.70;98.00;;;;;;4976406;28;20502;-89
2022/08/02 05:08:35;;;;;;;9.00;3.58;;;16.70;98.00;;;;;;4976013;28;20039;-89
2022/08/02 05:11:00;;;;;;;8.68;3.40;;;16.70;98.20;;;;;;4992529;28;20033;-89
2022/08/02 05:13:26;;;;;;;6.05;3.03;;;16.70;98.30;;;;;;4976582;28;20090;-89
2022/08/02 05:15:52;;;;;;;7.88;3.78;;;16.70;98.60;;;;;;4976137;28;20027;-89
2022/08/02 05:18:18;;;;;;;6.07;3.38;;;16.70;98.80;;;;;;4992199;28;20101;-89
2022/08/02 05:20:43;;;;;;;9.82;3.22;;;16.70;98.90;;;;;;4976719;28;20037;-89
2022/08/02 05:23:09;;;;;;;5.30;3.20;;;16.80;99.00;;;;;;4976928;28;20034;-89
2022/08/02 05:25:35;;;;;;;5.50;3.20;;;16.80;99.00;;;;;;4976218;28;20034;-89
2022/08/02 05:28:00;;;;;;;6.40;3.30;;;16.70;99.10;;;;;;4992130;28;20041;-89
2022/08/02 05:30:29;;;;;;;9.90;3.30;;;16.80;99.20;;;;;;4992361;28;20046;-89
2022/08/02 05:32:55;;;;;;;7.45;3.00;;;16.80;99.20;;;;;;4976189;28;20384;-87
2022/08/02 05:35:23;;;;;;;6.03;2.97;;;16.80;99.20;;;;;;4976265;28;20038;-86
2022/08/02 05:37:50;;;;;;;8.15;3.13;;;16.80;99.20;;;;;;4977233;28;20054;-87
2022/08/02 05:40:17;;;;;;;6.53;2.90;;;16.80;99.30;;;;;;4981848;28;20028;-87
2022/08/02 05:42:42;;;;;;;8.88;3.33;;;16.80;99.30;;;;;;4988734;28;20023;-87
2022/08/02 05:45:09;;;;;;;7.72;3.03;;;16.80;99.30;;;;;;4992209;28;20085;-87
2022/08/02 05:47:34;;;;;;;6.40;3.40;;;16.90;99.30;;;;;;4991852;28;20081;-87
2022/08/02 05:50:00;;;;;;;7.10;3.03;;;16.90;99.30;;;;;;4975629;28;20113;-84
2022/08/02 05:52:39;;;;;;;9.02;3.10;;;16.90;99.40;;;;;;4981116;28;20042;-83
2022/08/02 05:58:40;;;;;;;11.52;3.10;;;17.00;99.50;;;;;;4972549;28;20073;-88
2022/08/02 06:01:08;;;;;;;7.45;2.90;;;17.00;99.40;;;;;;4962769;28;20027;-88
2022/08/02 06:03:51;;;;;;;7.70;3.03;;;17.00;99.50;;;;;;4962226;28;20483;-88
2022/08/02 06:06:54;;;;;;;7.05;2.95;;;17.00;99.50;;;;;;4966858;28;20125;-88
2022/08/02 06:09:21;;;;;;;5.72;3.20;;;17.10;99.60;;;;;;4974661;28;20037;-88
2022/08/02 06:11:51;;;;;;;10.93;3.80;;;17.10;99.60;;;;;;4974614;28;20113;-87
2022/08/02 06:14:17;;;;;;;9.05;4.10;;;17.10;99.70;;;;;;4974954;28;20022;-88
2022/08/02 06:16:43;;;;;;;7.72;2.97;;;17.20;99.70;;;;;;4964213;28;20030;-88
2022/08/02 06:19:11;;;;;;;9.10;3.47;;;17.20;99.80;;;;;;4973284;28;20023;-87
2022/08/02 06:21:41;;;;;;;8.02;3.25;;;17.20;99.80;;;;;;4958762;28;20023;-85
2022/08/02 06:24:12;;;;;;;9.25;3.50;;;17.30;99.90;;;;;;4975704;28;20022;-85
2022/08/02 06:26:39;;;;;;;8.98;3.50;;;17.30;99.90;;;;;;4970628;28;20074;-85
2022/08/02 06:29:05;;;;;;;5.85;3.30;;;17.40;99.90;;;;;;4968716;28;20070;-84
2022/08/02 06:31:31;;;;;;;8.75;3.40;;;17.40;99.90;;;;;;4956673;28;20023;-85
2022/08/02 06:33:56;;;;;;;7.10;2.90;;;17.50;99.90;;;;;;4973146;28;20388;-85
2022/08/02 06:36:37;;;;;;;8.63;3.78;;;17.50;99.90;;;;;;4957792;28;20022;-85
2022/08/02 06:39:18;;;;;;;9.90;4.25;;;17.60;99.90;;;;;;4959771;28;20409;-85
2022/08/02 06:41:48;;;;;;;9.80;3.67;;;17.70;99.90;;;;;;4956910;28;20030;-85
2022/08/02 06:44:13;;;;;;;8.48;3.35;;;17.70;99.90;;;;;;4954802;29;20030;-85
2022/08/02 06:46:41;;;;;;;9.85;3.80;;;17.70;99.90;;;;;;4957643;28;20035;-85
2022/08/02 06:49:07;;;;;;;6.82;3.65;;;17.80;99.90;;;;;;4957591;28;20381;-85
2022/08/02 06:51:33;;;;;;;6.93;3.20;;;17.90;99.90;;;;;;4956162;28;20023;-85
2022/08/02 06:53:58;;;;;;;7.60;3.35;;;17.90;99.90;;;;;;4954891;29;20381;-85
2022/08/02 06:56:24;;;;;;;6.90;3.28;;;18.00;99.90;;;;;;4946329;28;20491;-83
2022/08/02 06:58:50;;;;;;;11.80;3.38;;;18.00;99.90;;;;;;4954320;29;20134;-83
2022/08/02 07:01:17;;;;;;;10.02;3.80;;;18.10;99.90;;;;;;4957631;28;20026;-83
2022/08/02 07:03:43;;;;;;;7.75;3.78;;;18.20;99.90;;;;;;4957538;28;20018;-84
2022/08/02 07:06:09;;;;;;;10.15;4.47;;;18.20;99.90;;;;;;4979873;23;20147;-88
2022/08/02 07:08:37;;;;;;;6.75;3.45;;;18.30;99.90;;;;;;4957483;28;20029;-87
2022/08/02 07:11:07;;;;;;;9.45;4.10;;;18.40;99.90;;;;;;4954978;29;20034;-88
2022/08/02 07:13:33;;;;;;;9.32;3.85;;;18.50;99.90;;;;;;4956221;29;20024;-87
2022/08/02 07:15:59;;;;;;;7.55;3.95;;;18.50;99.90;;;;;;4938227;29;20030;-83
2022/08/02 07:18:25;;;;;;;6.47;3.22;;;18.60;99.90;;;;;;4970242;28;20035;-83
2022/08/02 07:20:51;;;;;;;6.10;3.30;;;18.70;99.90;;;;;;4954266;28;20123;-83
2022/08/02 07:23:17;;;;;;;11.73;4.68;;;18.80;99.90;;;;;;4955978;29;20031;-85
2022/08/02 07:25:44;;;;;;;9.10;3.85;;;18.90;99.90;;;;;;4954101;29;20016;-86
2022/08/02 07:28:11;;;;;;;7.95;3.72;;;19.00;99.90;;;;;;4945801;29;20050;-84
2022/08/02 07:30:37;;;;;;;7.88;4.38;;;19.10;99.90;;;;;;4938128;29;20034;-83
2022/08/02 07:33:03;;;;;;;8.38;4.15;;;19.20;99.90;;;;;;4969848;28;20031;-84
2022/08/02 07:35:30;;;;;;;7.03;3.85;;;19.30;99.90;;;;;;4959031;28;20024;-84
2022/08/02 07:37:55;;;;;;;9.00;3.85;;;19.50;99.90;;;;;;4968194;28;20035;-84
2022/08/02 07:40:22;;;;;;;5.57;3.38;;;19.70;99.90;;;;;;4986267;28;20062;-89
2022/08/02 07:42:53;;;;;;;6.43;3.45;;;19.90;99.90;;;;;;4974174;28;20031;-88
2022/08/02 07:45:20;;;;;;;10.07;4.57;;;20.00;99.90;;;;;;4974340;28;20074;-83
2022/08/02 07:47:46;;;;;;;9.13;4.90;;;20.20;99.90;;;;;;4973591;28;20058;-82
2022/08/02 07:50:14;;;;;;;7.80;4.40;;;20.30;99.90;;;;;;4957633;28;20031;-80
2022/08/02 07:52:41;;;;;;;9.65;5.72;;;20.50;99.90;;;;;;4974048;28;20078;-80
2022/08/02 07:55:08;;;;;;;9.85;5.28;;;20.60;99.90;;;;;;4990197;28;20115;-80
2022/08/02 07:57:34;;;;;;;9.95;5.25;;;20.70;99.90;;;;;;4989788;28;20039;-79
2022/08/02 08:00:52;;;;;;;9.80;6.22;;;20.70;99.90;;;;;;4959840;28;20556;-80
2022/08/02 08:03:18;;;;;;;8.63;5.07;;;20.80;99.90;;;;;;4958346;29;20023;-80
2022/08/02 08:05:44;;;;;;;13.27;5.40;;;20.90;99.90;;;;;;4973652;28;20042;-81
2022/08/02 08:08:10;;;;;;;8.70;4.90;;;21.00;99.90;;;;;;4941757;29;20039;-80
2022/08/02 08:10:35;;;;;;;8.85;6.03;;;21.10;99.90;;;;;;4973770;28;20430;-80
2022/08/02 08:13:01;;;;;;;10.95;5.97;;;21.10;99.90;;;;;;4973678;28;20516;-80
2022/08/02 08:15:27;;;;;;;9.18;6.20;;;21.20;99.90;;;;;;4973529;28;20023;-81
2022/08/02 08:17:52;;;;;;;10.98;6.22;;;21.30;99.90;;;;;;4957543;29;20086;-81
2022/08/02 08:20:18;;;;;;;9.68;6.60;;;21.30;99.60;;;;;;4973334;28;20433;-81
2022/08/02 08:22:44;;;;;;;9.38;6.50;;;21.40;99.70;;;;;;4971980;28;20428;-81
2022/08/02 08:25:10;;;;;;;9.95;5.70;;;21.50;99.30;;;;;;4965073;28;20063;-81
2022/08/02 08:27:35;;;;;;;9.90;6.13;;;21.50;99.30;;;;;;4952856;29;20098;-81
2022/08/02 08:30:02;;;;;;;8.27;6.75;;;21.60;99.20;;;;;;4941415;29;20511;-81
2022/08/02 08:32:28;;;;;;;10.23;5.85;;;21.70;98.80;;;;;;4973018;28;20027;-81
2022/08/02 08:34:53;;;;;;;11.27;6.82;;;21.80;98.60;;;;;;4970466;28;20023;-81
2022/08/02 08:37:19;;;;;;;9.82;5.90;;;21.90;98.60;;;;;;4947185;29;20031;-85
2022/08/02 08:39:48;;;;;;;7.88;5.63;;;21.90;98.20;;;;;;4968634;28;20035;-84
2022/08/02 08:42:18;;;;;;;10.35;6.13;;;22.00;98.20;;;;;;4956332;29;20023;-84
2022/08/02 08:44:43;;;;;;;8.48;6.47;;;22.10;98.20;;;;;;4966162;28;20081;-84
2022/08/02 08:47:09;;;;;;;8.30;5.40;;;22.20;97.90;;;;;;4956452;29;20035;-84
2022/08/02 08:49:43;;;;;;;7.88;5.35;;;22.30;97.50;;;;;;4962265;28;20487;-84
2022/08/02 08:52:12;;;;;;;7.78;5.10;;;22.40;97.20;;;;;;4948539;29;20404;-84
2022/08/02 08:54:39;;;;;;;6.47;5.15;;;22.40;97.10;;;;;;4971313;28;20032;-84
2022/08/02 08:57:06;;;;;;;7.32;5.22;;;22.50;97.10;;;;;;4955492;29;20055;-84
2022/08/02 08:59:32;;;;;;;9.60;5.20;;;22.60;97.00;;;;;;4956997;29;20044;-84
2022/08/02 09:01:59;;;;;;;9.77;6.65;;;22.70;97.20;;;;;;4955446;28;20035;-83
2022/08/02 09:04:25;;;;;;;9.73;5.82;;;22.70;97.10;;;;;;4940897;29;20118;-84
2022/08/02 09:06:51;;;;;;;6.30;4.43;;;22.80;96.90;;;;;;4972525;28;20469;-84
2022/08/02 09:09:17;;;;;;;6.43;4.10;;;22.90;96.80;;;;;;4957263;29;20040;-84
2022/08/02 09:11:43;;;;;;;7.22;3.60;;;23.00;96.50;;;;;;4940504;29;20038;-84
2022/08/02 09:14:09;;;;;;;6.10;3.05;;;23.00;96.30;;;;;;4972755;28;20027;-83
2022/08/02 09:16:37;;;;;;;7.90;3.40;;;23.10;95.30;;;;;;4972404;28;20023;-84
2022/08/02 09:19:28;;;;;;;5.00;3.42;;;23.10;93.40;;;;;;4956713;29;20035;-84
2022/08/02 09:22:03;;;;;;;6.60;3.22;;;23.20;93.40;;;;;;4940407;29;20027;-84
2022/08/02 09:24:39;;;;;;;7.53;3.67;;;23.20;93.50;;;;;;4957882;29;20031;-84
2022/08/02 09:27:13;;;;;;;4.40;2.60;;;23.30;92.90;;;;;;4957820;29;20087;-86
2022/08/02 09:29:40;;;;;;;4.15;2.33;;;23.40;93.10;;;;;;4956648;29;20020;-86
2022/08/02 09:32:07;;;;;;;2.63;1.77;;;23.40;91.80;;;;;;4940130;29;20031;-86
2022/08/02 09:34:53;;;;;;;3.88;1.60;;;23.50;91.30;;;;;;4988456;28;20543;-87
2022/08/02 09:37:29;;;;;;;3.22;1.67;;;23.60;89.60;;;;;;4972784;28;20066;-86
2022/08/02 09:39:59;;;;;;;4.50;1.73;;;23.60;90.50;;;;;;4972471;28;20499;-86
2022/08/02 09:42:25;;;;;;;4.17;1.90;;;23.70;90.50;;;;;;4956152;29;20034;-86
2022/08/02 09:45:01;;;;;;;2.63;1.60;;;23.80;90.40;;;;;;4956316;29;20493;-86
2022/08/02 09:47:28;;;;;;;3.97;1.77;;;23.90;90.40;;;;;;4972041;28;20059;-86
2022/08/02 09:49:55;;;;;;;2.80;1.70;;;24.00;90.20;;;;;;4940102;29;20023;-86
2022/08/02 09:52:29;;;;;;;3.42;1.70;;;24.00;89.30;;;;;;4961901;28;20023;-85
2022/08/02 09:55:03;;;;;;;4.10;1.50;;;24.10;88.80;;;;;;4939942;29;20110;-86
2022/08/02 09:57:32;;;;;;;1.80;1.40;;;24.20;87.90;;;;;;4954971;29;20023;-86
2022/08/02 09:59:58;;;;;;;2.00;1.60;;;24.20;87.80;;;;;;4970097;28;20071;-86
2022/08/02 10:02:25;;;;;;;5.25;2.20;;;24.30;87.90;;;;;;4966269;28;20562;-86
2022/08/02 10:04:51;;;;;;;2.58;1.55;;;24.40;87.80;;;;;;4969677;28;20094;-86
2022/08/02 10:07:17;;;;;;;2.13;1.40;;;24.50;86.90;;;;;;4952979;28;20043;-86
2022/08/02 10:09:45;;;;;;;2.92;1.58;;;24.50;86.70;;;;;;4929344;29;20024;-86
2022/08/02 10:12:12;;;;;;;4.50;1.63;;;24.60;86.40;;;;;;4960863;28;20020;-86
2022/08/02 10:14:38;;;;;;;1.45;1.33;;;24.60;86.00;;;;;;4953765;28;20028;-86
2022/08/02 10:17:05;;;;;;;3.50;1.48;;;24.70;85.50;;;;;;4942671;29;20047;-86
2022/08/02 10:19:33;;;;;;;2.47;1.60;;;24.80;85.40;;;;;;4928677;29;20082;-86
2022/08/02 10:22:10;;;;;;;2.70;1.40;;;24.80;85.30;;;;;;4964092;28;20031;-87
2022/08/02 10:24:36;;;;;;;2.25;1.60;;;24.90;84.90;;;;;;4980984;28;20059;-86
2022/08/02 10:27:03;;;;;;;2.97;1.50;;;24.90;84.40;;;;;;4937822;28;20051;-85
2022/08/02 10:29:36;;;;;;;1.30;1.13;;;25.00;84.50;;;;;;4960391;28;20549;-86
2022/08/02 10:32:07;;;;;;;1.63;1.40;;;25.10;84.60;;;;;;4927868;29;20032;-86
2022/08/02 10:34:41;;;;;;;2.75;1.48;;;25.10;84.80;;;;;;4944766;29;20118;-86
2022/08/02 10:37:08;;;;;;;2.05;1.40;;;25.20;84.10;;;;;;4957424;28;20024;-86
2022/08/02 10:39:41;;;;;;;1.67;1.40;;;25.30;84.20;;;;;;4951891;29;20071;-86
2022/08/02 10:42:08;;;;;;;4.72;1.70;;;25.30;82.40;;;;;;4951665;28;20058;-86
2022/08/02 10:44:34;;;;;;;2.55;1.40;;;25.30;82.40;;;;;;4936253;29;20379;-86
2022/08/02 10:47:20;;;;;;;4.22;1.75;;;25.40;82.50;;;;;;4962456;28;20119;-86
2022/08/02 10:49:51;;;;;;;3.60;1.25;;;25.40;80.70;;;;;;4966699;28;20024;-86
2022/08/02 10:52:29;;;;;;;2.10;1.23;;;25.40;81.40;;;;;;4936465;29;20347;-85
2022/08/02 10:55:13;;;;;;;1.88;1.45;;;25.40;81.60;;;;;;4967469;28;20028;-83
2022/08/02 10:57:39;;;;;;;2.65;1.30;;;25.50;81.20;;;;;;4967652;28;20027;-83
2022/08/02 11:00:23;;;;;;;2.65;1.25;;;25.50;81.20;;;;;;4935826;29;20023;-83
2022/08/02 11:02:50;;;;;;;2.08;1.30;;;25.50;79.60;;;;;;4967423;28;20036;-83
2022/08/02 11:05:33;;;;;;;1.88;1.20;;;25.60;79.40;;;;;;4938096;29;20020;-83
2022/08/02 11:08:20;;;;;;;2.10;1.30;;;25.60;78.90;;;;;;4950634;29;20055;-83
2022/08/02 11:10:46;;;;;;;2.38;1.40;;;25.70;79.30;;;;;;4934309;29;20414;-83
2022/08/02 11:13:14;;;;;;;3.08;1.35;;;25.80;78.60;;;;;;4934982;29;20083;-83
2022/08/02 11:15:57;;;;;;;1.63;1.30;;;25.80;78.00;;;;;;4918616;29;20120;-83
2022/08/02 11:18:43;;;;;;;2.30;1.25;;;25.90;77.00;;;;;;4949344;28;20568;-83
2022/08/02 11:21:32;;;;;;;2.03;1.20;;;26.00;77.30;;;;;;4946701;29;20082;-83
2022/08/02 11:24:25;;;;;;;1.70;1.25;;;26.00;76.60;;;;;;4948079;29;20102;-83
2022/08/02 11:26:51;;;;;;;1.67;1.13;;;26.10;77.60;;;;;;4930061;29;20023;-83
2022/08/02 11:29:17;;;;;;;1.63;1.10;;;26.20;77.20;;;;;;4935903;29;20027;-84
2022/08/02 11:31:44;;;;;;;2.65;1.50;;;26.30;77.20;;;;;;4938396;29;20038;-83
2022/08/02 11:34:10;;;;;;;2.30;1.40;;;26.30;76.20;;;;;;4934471;29;20016;-83
2022/08/02 11:36:47;;;;;;;4.05;1.52;;;26.40;75.00;;;;;;4935097;29;20128;-83
2022/08/02 11:39:15;;;;;;;4.82;1.58;;;26.40;74.40;;;;;;4934497;29;21020;-84
2022/08/02 11:41:42;;;;;;;2.20;1.40;;;26.50;74.80;;;;;;4917997;29;20068;-84
2022/08/02 11:44:08;;;;;;;1.63;1.20;;;26.50;75.50;;;;;;4936322;29;20028;-84
2022/08/02 11:46:34;;;;;;;4.05;1.40;;;26.60;75.50;;;;;;4921844;29;20036;-83
2022/08/02 11:49:17;;;;;;;2.45;1.40;;;26.60;72.90;;;;;;4918928;29;20119;-84
2022/08/02 11:52:06;;;;;;;1.42;1.20;;;26.70;72.60;;;;;;4919271;29;20122;-84
2022/08/02 11:54:40;;;;;;;2.45;1.10;;;26.80;72.70;;;;;;4918902;29;20024;-84
2022/08/02 11:57:17;;;;;;;3.60;1.35;;;26.80;72.90;;;;;;4934763;29;20031;-84
2022/08/02 11:59:44;;;;;;;2.15;1.27;;;26.90;71.50;;;;;;4951079;28;20091;-84
2022/08/02 12:02:11;;;;;;;1.77;1.20;;;27.00;71.50;;;;;;4934725;29;20422;-84
2022/08/02 12:04:38;;;;;;;1.85;1.17;;;27.00;71.40;;;;;;4964674;28;20390;-84
2022/08/02 12:07:04;;;;;;;2.33;1.38;;;27.10;71.50;;;;;;4959418;28;20050;-84
2022/08/02 12:09:32;;;;;;;2.13;1.40;;;27.20;71.40;;;;;;4967396;28;20094;-84
2022/08/02 12:11:58;;;;;;;3.38;1.50;;;27.20;69.90;;;;;;4952217;29;20016;-83
2022/08/02 12:14:26;;;;;;;2.28;1.73;;;27.20;68.60;;;;;;4957621;28;20433;-84
2022/08/02 12:19:41;;;;;;;6.15;1.45;;;27.30;67.20;;;;;;4968079;28;20042;-85
2022/08/02 12:22:12;;;;;;;2.10;0.93;;;27.40;67.30;;;;;;4973953;28;20015;-85
2022/08/02 12:24:40;;;;;;;1.88;1.15;;;27.40;66.70;;;;;;4958292;28;20031;-84
2022/08/02 12:27:06;;;;;;;2.45;1.40;;;27.50;66.50;;;;;;4950436;29;20034;-88
2022/08/02 12:29:34;;;;;;;2.53;1.15;;;27.50;65.50;;;;;;4955467;28;20031;-88
2022/08/02 12:32:01;;;;;;;2.15;1.50;;;27.60;65.70;;;;;;4968755;28;20062;-85
2022/08/02 12:34:29;;;;;;;1.77;1.25;;;27.60;65.80;;;;;;4980926;28;20023;-85
2022/08/02 12:36:58;;;;;;;2.28;1.20;;;27.70;65.20;;;;;;4957173;28;20465;-84
2022/08/02 12:39:45;;;;;;;1.30;0.88;;;27.80;64.80;;;;;;4963774;28;20469;-85
2022/08/02 12:42:13;;;;;;;1.65;1.20;;;27.80;65.30;;;;;;4956807;29;20074;-86
2022/08/02 12:44:57;;;;;;;2.92;1.40;;;27.90;64.80;;;;;;4940394;29;20035;-85
2022/08/02 12:47:23;;;;;;;5.10;1.45;;;27.90;64.10;;;;;;4956083;29;20483;-85
2022/08/02 12:50:17;;;;;;;1.35;1.10;;;28.00;64.60;;;;;;4955484;29;20028;-88
2022/08/02 12:52:44;;;;;;;2.85;1.30;;;28.10;64.10;;;;;;4956866;29;20055;-89
2022/08/02 12:55:17;;;;;;;1.83;0.88;;;28.10;63.80;;;;;;4987421;28;20024;-88
2022/08/02 12:58:01;;;;;;;2.75;1.17;;;28.20;63.40;;;;;;4957780;29;20030;-88
2022/08/02 13:00:28;;;;;;;2.97;1.13;;;28.30;63.80;;;;;;4956551;29;20027;-89
2022/08/02 13:02:54;;;;;;;1.90;1.13;;;28.40;63.50;;;;;;4956225;29;20064;-87
2022/08/02 13:05:20;;;;;;;3.78;1.10;;;28.50;63.20;;;;;;4941036;29;20074;-88
2022/08/02 13:07:46;;;;;;;2.05;1.10;;;28.50;61.60;;;;;;4935607;29;20067;-88
2022/08/02 13:10:12;;;;;;;1.42;1.10;;;28.60;61.60;;;;;;4961622;28;20051;-88
2022/08/02 13:12:38;;;;;;;2.78;1.23;;;28.60;61.50;;;;;;4985814;28;20030;-89
2022/08/02 13:15:08;;;;;;;1.67;1.05;;;28.70;61.60;;;;;;4938696;29;20020;-89
2022/08/02 13:17:34;;;;;;;4.30;1.00;;;28.70;59.50;;;;;;4936028;29;20032;-90